Joplin, MO (64804)

10:53 AM CDT on September 26, 2016 (GMT -0500)
Cliff Village | | Change Station

Elev 948 ft 37.03 °N, 94.52 °W | Updated 4 minutes ago

Clear
Clear
61.0 °F
Feels Like 61.0 °F
N
0.0
Wind Variable Wind from North
Gusts 0.0 mph

Today
High -- | Low -- °F
--% Chance of Precip.
Yesterday
High -- | Low -- °F
Precip. -- in
Pressure 30.27 in
Visibility 10.0 miles
Clouds Clear
Dew Point 50 °F
Humidity 66%
Rainfall 0.01 in
Snow Depth Not available.
7:09 AM 7:08 PM
Waning Crescent, 18% visible
METAR KJLN 261453Z 04005KT 10SM CLR 18/11 A3028 RMK AO2 SLP249 T01780111 $
Pressure 30.27 in
Visibility 10.0 miles
Clouds Clear
Dew Point 50 °F
Humidity 66%
Rainfall 0.01 in
Snow Depth Not available.
7:09 AM 7:08 PM
Waning Crescent, 18% visible
METAR KJLN 261453Z 04005KT 10SM CLR 18/11 A3028 RMK AO2 SLP249 T01780111 $

10-Day Weather Forecast

Almanac

Astronomy

Sep. 26, 2016 Rise Set
Actual Time
Civil Twilight
Nautical Twilight
Astronomical Twilight
Moon
Length of Visible Light
Length of Day
Tomorrow will be .
, % of the Moon is Illuminated

Today's Extremes

State Highs State Lows

Community

WunderPhotos

Upload Photos

1,941,906 photos uploaded!

WunderBlog® & News

Nearby

Air Quality

  Air Quality AQ Index Pollutant
Not available.

Snow Depth

Station Depth Elevation

Earthquake Activity

City Distance Mag. Time & Date
Minimum magnitude displayed is 2.5.

Coastal Water Temperatures

Place Temperature

Stations

Nearby Weather Stations

Station Location Temp. Windchill Dew Point Humidity Wind Precip. Elev Updated Type
                   

Watches & Warnings

There are currently no watches in effect.